sensor_id;sensor_type;location;lat;lon;timestamp;P1;durP1;ratioP1;P2;durP2;ratioP2
25913;SDS011;13718;50.922;5.346;2022-12-24T00:01:23;32.90;;;4.32;;
25913;SDS011;13718;50.922;5.346;2022-12-24T00:03:48;37.67;;;4.80;;
25913;SDS011;13718;50.922;5.346;2022-12-24T00:06:15;29.95;;;3.33;;
25913;SDS011;13718;50.922;5.346;2022-12-24T00:08:42;32.00;;;5.03;;
25913;SDS011;13718;50.922;5.346;2022-12-24T00:11:08;36.85;;;4.10;;
25913;SDS011;13718;50.922;5.346;2022-12-24T00:13:34;35.55;;;3.85;;
25913;SDS011;13718;50.922;5.346;2022-12-24T00:15:59;34.75;;;3.97;;
25913;SDS011;13718;50.922;5.346;2022-12-24T00:18:25;35.70;;;3.85;;
25913;SDS011;13718;50.922;5.346;2022-12-24T00:20:51;28.35;;;3.25;;
25913;SDS011;13718;50.922;5.346;2022-12-24T00:23:18;41.05;;;4.20;;
25913;SDS011;13718;50.922;5.346;2022-12-24T00:25:44;35.67;;;3.67;;
25913;SDS011;13718;50.922;5.346;2022-12-24T00:28:11;36.25;;;3.55;;
25913;SDS011;13718;50.922;5.346;2022-12-24T00:30:37;39.75;;;4.18;;
25913;SDS011;13718;50.922;5.346;2022-12-24T00:33:03;44.25;;;5.43;;
25913;SDS011;13718;50.922;5.346;2022-12-24T00:35:32;28.25;;;3.33;;
25913;SDS011;13718;50.922;5.346;2022-12-24T00:37:58;37.47;;;4.43;;
25913;SDS011;13718;50.922;5.346;2022-12-24T00:40:23;28.42;;;4.05;;
25913;SDS011;13718;50.922;5.346;2022-12-24T00:42:49;36.60;;;4.10;;
25913;SDS011;13718;50.922;5.346;2022-12-24T00:45:15;33.40;;;3.95;;
25913;SDS011;13718;50.922;5.346;2022-12-24T00:47:40;29.55;;;5.07;;
25913;SDS011;13718;50.922;5.346;2022-12-24T00:50:06;48.42;;;4.50;;
25913;SDS011;13718;50.922;5.346;2022-12-24T00:52:32;36.75;;;4.15;;
25913;SDS011;13718;50.922;5.346;2022-12-24T00:54:58;44.10;;;4.25;;
25913;SDS011;13718;50.922;5.346;2022-12-24T00:57:23;34.13;;;3.95;;
25913;SDS011;13718;50.922;5.346;2022-12-24T00:59:49;38.53;;;4.47;;
25913;SDS011;13718;50.922;5.346;2022-12-24T01:02:15;33.22;;;4.30;;
25913;SDS011;13718;50.922;5.346;2022-12-24T01:04:40;35.67;;;3.70;;
25913;SDS011;13718;50.922;5.346;2022-12-24T01:07:24;35.28;;;4.07;;
25913;SDS011;13718;50.922;5.346;2022-12-24T01:09:50;40.88;;;3.92;;
25913;SDS011;13718;50.922;5.346;2022-12-24T01:12:16;27.63;;;3.67;;
25913;SDS011;13718;50.922;5.346;2022-12-24T01:14:41;32.25;;;4.43;;
25913;SDS011;13718;50.922;5.346;2022-12-24T01:17:07;40.08;;;3.85;;
25913;SDS011;13718;50.922;5.346;2022-12-24T01:19:33;32.35;;;3.50;;
25913;SDS011;13718;50.922;5.346;2022-12-24T01:21:58;31.20;;;3.60;;
25913;SDS011;13718;50.922;5.346;2022-12-24T01:24:24;32.10;;;3.88;;
25913;SDS011;13718;50.922;5.346;2022-12-24T01:26:49;38.92;;;4.22;;
25913;SDS011;13718;50.922;5.346;2022-12-24T01:29:15;37.25;;;4.13;;
25913;SDS011;13718;50.922;5.346;2022-12-24T01:31:40;29.73;;;3.58;;
25913;SDS011;13718;50.922;5.346;2022-12-24T01:34:06;37.30;;;4.05;;
25913;SDS011;13718;50.922;5.346;2022-12-24T01:36:32;34.80;;;3.95;;
25913;SDS011;13718;50.922;5.346;2022-12-24T01:38:57;29.23;;;3.30;;
25913;SDS011;13718;50.922;5.346;2022-12-24T01:41:23;28.50;;;3.42;;
25913;SDS011;13718;50.922;5.346;2022-12-24T01:44:17;41.88;;;3.92;;
25913;SDS011;13718;50.922;5.346;2022-12-24T01:46:56;31.83;;;3.92;;
25913;SDS011;13718;50.922;5.346;2022-12-24T01:49:30;32.22;;;3.83;;
25913;SDS011;13718;50.922;5.346;2022-12-24T01:51:57;33.15;;;3.92;;
25913;SDS011;13718;50.922;5.346;2022-12-24T01:54:35;30.45;;;3.67;;
25913;SDS011;13718;50.922;5.346;2022-12-24T01:57:08;32.22;;;4.57;;
25913;SDS011;13718;50.922;5.346;2022-12-24T01:59:40;40.22;;;4.55;;
25913;SDS011;13718;50.922;5.346;2022-12-24T02:02:07;35.58;;;4.50;;
25913;SDS011;13718;50.922;5.346;2022-12-24T02:07:14;36.20;;;4.22;;
25913;SDS011;13718;50.922;5.346;2022-12-24T02:09:39;29.27;;;3.75;;
25913;SDS011;13718;50.922;5.346;2022-12-24T02:12:05;48.33;;;4.40;;
25913;SDS011;13718;50.922;5.346;2022-12-24T02:14:31;36.63;;;5.30;;
25913;SDS011;13718;50.922;5.346;2022-12-24T02:17:03;39.10;;;4.35;;
25913;SDS011;13718;50.922;5.346;2022-12-24T02:22:10;36.65;;;4.20;;
25913;SDS011;13718;50.922;5.346;2022-12-24T02:30:37;26.90;;;2.85;;
25913;SDS011;13718;50.922;5.346;2022-12-24T02:33:27;25.27;;;2.78;;
25913;SDS011;13718;50.922;5.346;2022-12-24T02:36:03;29.15;;;2.65;;
25913;SDS011;13718;50.922;5.346;2022-12-24T02:41:13;24.70;;;3.00;;
25913;SDS011;13718;50.922;5.346;2022-12-24T02:43:44;17.67;;;2.63;;
25913;SDS011;13718;50.922;5.346;2022-12-24T02:46:13;23.50;;;3.05;;
25913;SDS011;13718;50.922;5.346;2022-12-24T02:48:42;24.88;;;2.72;;
25913;SDS011;13718;50.922;5.346;2022-12-24T02:51:10;21.30;;;2.03;;
25913;SDS011;13718;50.922;5.346;2022-12-24T02:53:37;16.75;;;1.73;;
25913;SDS011;13718;50.922;5.346;2022-12-24T02:58:52;19.58;;;2.50;;
25913;SDS011;13718;50.922;5.346;2022-12-24T03:06:42;18.17;;;1.98;;
25913;SDS011;13718;50.922;5.346;2022-12-24T03:09:37;13.18;;;1.70;;
25913;SDS011;13718;50.922;5.346;2022-12-24T03:12:11;11.52;;;1.63;;
25913;SDS011;13718;50.922;5.346;2022-12-24T03:14:40;14.10;;;1.50;;
25913;SDS011;13718;50.922;5.346;2022-12-24T03:17:08;15.43;;;1.65;;
25913;SDS011;13718;50.922;5.346;2022-12-24T03:19:34;20.08;;;2.10;;
25913;SDS011;13718;50.922;5.346;2022-12-24T03:22:01;24.00;;;2.80;;
25913;SDS011;13718;50.922;5.346;2022-12-24T03:24:29;26.92;;;3.15;;
25913;SDS011;13718;50.922;5.346;2022-12-24T03:26:55;27.13;;;3.70;;
25913;SDS011;13718;50.922;5.346;2022-12-24T03:29:21;37.28;;;5.07;;
25913;SDS011;13718;50.922;5.346;2022-12-24T03:31:47;42.22;;;5.20;;
25913;SDS011;13718;50.922;5.346;2022-12-24T03:34:15;37.15;;;4.75;;
25913;SDS011;13718;50.922;5.346;2022-12-24T03:36:42;41.40;;;4.93;;
25913;SDS011;13718;50.922;5.346;2022-12-24T03:39:09;37.13;;;4.15;;
25913;SDS011;13718;50.922;5.346;2022-12-24T03:41:35;52.75;;;5.10;;
25913;SDS011;13718;50.922;5.346;2022-12-24T03:44:01;36.72;;;5.03;;
25913;SDS011;13718;50.922;5.346;2022-12-24T03:46:27;43.28;;;6.00;;
25913;SDS011;13718;50.922;5.346;2022-12-24T03:48:53;39.65;;;4.47;;
25913;SDS011;13718;50.922;5.346;2022-12-24T03:51:20;36.25;;;4.88;;
25913;SDS011;13718;50.922;5.346;2022-12-24T03:53:46;39.83;;;5.93;;
25913;SDS011;13718;50.922;5.346;2022-12-24T03:56:12;37.15;;;5.18;;
25913;SDS011;13718;50.922;5.346;2022-12-24T03:58:38;44.65;;;4.80;;
25913;SDS011;13718;50.922;5.346;2022-12-24T04:01:04;37.30;;;4.07;;
25913;SDS011;13718;50.922;5.346;2022-12-24T04:03:29;34.50;;;4.40;;
25913;SDS011;13718;50.922;5.346;2022-12-24T04:06:06;25.30;;;4.60;;
25913;SDS011;13718;50.922;5.346;2022-12-24T04:08:32;29.98;;;4.63;;
25913;SDS011;13718;50.922;5.346;2022-12-24T04:10:58;44.63;;;4.75;;
25913;SDS011;13718;50.922;5.346;2022-12-24T04:13:23;40.13;;;5.05;;
25913;SDS011;13718;50.922;5.346;2022-12-24T04:15:59;35.40;;;5.65;;
25913;SDS011;13718;50.922;5.346;2022-12-24T04:18:25;44.50;;;5.78;;
25913;SDS011;13718;50.922;5.346;2022-12-24T04:20:51;40.63;;;5.45;;
25913;SDS011;13718;50.922;5.346;2022-12-24T04:23:17;37.72;;;5.13;;
25913;SDS011;13718;50.922;5.346;2022-12-24T04:25:43;34.10;;;5.22;;
25913;SDS011;13718;50.922;5.346;2022-12-24T04:28:08;34.45;;;5.05;;
25913;SDS011;13718;50.922;5.346;2022-12-24T04:30:34;46.67;;;5.60;;
25913;SDS011;13718;50.922;5.346;2022-12-24T04:33:01;43.35;;;5.50;;
25913;SDS011;13718;50.922;5.346;2022-12-24T04:35:27;40.38;;;5.00;;
25913;SDS011;13718;50.922;5.346;2022-12-24T04:37:53;40.45;;;5.43;;
25913;SDS011;13718;50.922;5.346;2022-12-24T04:40:18;50.88;;;4.78;;
25913;SDS011;13718;50.922;5.346;2022-12-24T04:42:44;43.30;;;5.25;;
25913;SDS011;13718;50.922;5.346;2022-12-24T04:45:10;44.88;;;5.15;;
25913;SDS011;13718;50.922;5.346;2022-12-24T04:47:35;34.13;;;4.95;;
25913;SDS011;13718;50.922;5.346;2022-12-24T04:50:01;51.47;;;4.80;;
25913;SDS011;13718;50.922;5.346;2022-12-24T04:52:26;46.65;;;5.15;;
25913;SDS011;13718;50.922;5.346;2022-12-24T04:54:52;52.05;;;5.68;;
25913;SDS011;13718;50.922;5.346;2022-12-24T04:57:18;51.13;;;5.35;;
25913;SDS011;13718;50.922;5.346;2022-12-24T04:59:43;43.85;;;5.25;;
25913;SDS011;13718;50.922;5.346;2022-12-24T05:02:09;46.08;;;6.38;;
25913;SDS011;13718;50.922;5.346;2022-12-24T05:04:34;45.40;;;4.47;;
25913;SDS011;13718;50.922;5.346;2022-12-24T05:07:00;64.22;;;7.00;;
25913;SDS011;13718;50.922;5.346;2022-12-24T05:09:26;50.58;;;5.60;;
25913;SDS011;13718;50.922;5.346;2022-12-24T05:11:51;43.08;;;5.57;;
25913;SDS011;13718;50.922;5.346;2022-12-24T05:14:17;54.70;;;5.60;;
25913;SDS011;13718;50.922;5.346;2022-12-24T05:16:42;50.83;;;6.30;;
25913;SDS011;13718;50.922;5.346;2022-12-24T05:19:08;41.92;;;5.53;;
25913;SDS011;13718;50.922;5.346;2022-12-24T05:21:34;49.85;;;5.70;;
25913;SDS011;13718;50.922;5.346;2022-12-24T05:23:59;55.90;;;6.05;;
25913;SDS011;13718;50.922;5.346;2022-12-24T05:26:45;40.33;;;5.90;;
25913;SDS011;13718;50.922;5.346;2022-12-24T05:29:22;48.45;;;6.10;;
25913;SDS011;13718;50.922;5.346;2022-12-24T05:31:48;65.22;;;6.15;;
25913;SDS011;13718;50.922;5.346;2022-12-24T05:34:14;74.28;;;7.10;;
25913;SDS011;13718;50.922;5.346;2022-12-24T05:36:40;61.05;;;6.25;;
25913;SDS011;13718;50.922;5.346;2022-12-24T05:39:06;52.00;;;5.72;;
25913;SDS011;13718;50.922;5.346;2022-12-24T05:41:32;69.90;;;6.53;;
25913;SDS011;13718;50.922;5.346;2022-12-24T05:43:58;48.05;;;5.15;;
25913;SDS011;13718;50.922;5.346;2022-12-24T05:46:24;46.33;;;5.05;;
25913;SDS011;13718;50.922;5.346;2022-12-24T05:48:50;50.28;;;7.50;;
25913;SDS011;13718;50.922;5.346;2022-12-24T05:51:18;52.22;;;5.20;;
25913;SDS011;13718;50.922;5.346;2022-12-24T05:53:46;54.08;;;5.65;;
25913;SDS011;13718;50.922;5.346;2022-12-24T05:56:16;45.00;;;5.13;;
25913;SDS011;13718;50.922;5.346;2022-12-24T05:58:44;53.25;;;6.20;;
25913;SDS011;13718;50.922;5.346;2022-12-24T06:01:11;37.90;;;4.90;;
25913;SDS011;13718;50.922;5.346;2022-12-24T06:03:37;42.47;;;4.75;;
25913;SDS011;13718;50.922;5.346;2022-12-24T06:06:04;42.10;;;5.40;;
25913;SDS011;13718;50.922;5.346;2022-12-24T06:08:33;56.88;;;6.20;;
25913;SDS011;13718;50.922;5.346;2022-12-24T06:11:02;60.83;;;6.22;;
25913;SDS011;13718;50.922;5.346;2022-12-24T06:13:29;44.78;;;5.47;;
25913;SDS011;13718;50.922;5.346;2022-12-24T06:15:59;50.50;;;6.38;;
25913;SDS011;13718;50.922;5.346;2022-12-24T06:18:27;47.67;;;6.43;;
25913;SDS011;13718;50.922;5.346;2022-12-24T06:20:55;47.75;;;5.30;;
25913;SDS011;13718;50.922;5.346;2022-12-24T06:23:22;47.83;;;5.53;;
25913;SDS011;13718;50.922;5.346;2022-12-24T06:25:48;57.70;;;5.40;;
25913;SDS011;13718;50.922;5.346;2022-12-24T06:28:15;46.80;;;5.55;;
25913;SDS011;13718;50.922;5.346;2022-12-24T06:30:44;42.05;;;6.00;;
25913;SDS011;13718;50.922;5.346;2022-12-24T06:33:10;48.70;;;5.88;;
25913;SDS011;13718;50.922;5.346;2022-12-24T06:35:36;58.63;;;5.90;;
25913;SDS011;13718;50.922;5.346;2022-12-24T06:38:02;43.42;;;5.55;;
25913;SDS011;13718;50.922;5.346;2022-12-24T06:40:27;51.92;;;5.80;;
25913;SDS011;13718;50.922;5.346;2022-12-24T06:42:53;50.92;;;5.43;;
25913;SDS011;13718;50.922;5.346;2022-12-24T06:45:18;56.40;;;5.88;;
25913;SDS011;13718;50.922;5.346;2022-12-24T06:47:44;45.28;;;5.45;;
25913;SDS011;13718;50.922;5.346;2022-12-24T06:50:10;53.08;;;5.07;;
25913;SDS011;13718;50.922;5.346;2022-12-24T06:52:35;54.10;;;6.05;;
25913;SDS011;13718;50.922;5.346;2022-12-24T06:55:02;49.58;;;4.82;;
25913;SDS011;13718;50.922;5.346;2022-12-24T06:57:28;44.28;;;5.50;;
25913;SDS011;13718;50.922;5.346;2022-12-24T06:59:55;55.38;;;5.78;;
25913;SDS011;13718;50.922;5.346;2022-12-24T07:02:22;51.00;;;5.85;;
25913;SDS011;13718;50.922;5.346;2022-12-24T07:04:48;38.65;;;4.85;;
25913;SDS011;13718;50.922;5.346;2022-12-24T07:07:13;50.33;;;6.43;;
25913;SDS011;13718;50.922;5.346;2022-12-24T07:09:39;59.45;;;5.18;;
25913;SDS011;13718;50.922;5.346;2022-12-24T07:12:05;52.97;;;5.82;;
25913;SDS011;13718;50.922;5.346;2022-12-24T07:14:30;43.75;;;6.05;;
25913;SDS011;13718;50.922;5.346;2022-12-24T07:16:56;45.13;;;5.32;;
25913;SDS011;13718;50.922;5.346;2022-12-24T07:19:22;53.15;;;5.10;;
25913;SDS011;13718;50.922;5.346;2022-12-24T07:21:48;46.67;;;6.07;;
25913;SDS011;13718;50.922;5.346;2022-12-24T07:24:14;52.45;;;6.90;;
25913;SDS011;13718;50.922;5.346;2022-12-24T07:26:40;37.95;;;6.75;;
25913;SDS011;13718;50.922;5.346;2022-12-24T07:29:05;42.55;;;6.90;;
25913;SDS011;13718;50.922;5.346;2022-12-24T07:31:31;48.63;;;8.95;;
25913;SDS011;13718;50.922;5.346;2022-12-24T07:33:56;61.63;;;6.30;;
25913;SDS011;13718;50.922;5.346;2022-12-24T07:36:22;54.67;;;6.32;;
25913;SDS011;13718;50.922;5.346;2022-12-24T07:38:48;57.38;;;6.80;;
25913;SDS011;13718;50.922;5.346;2022-12-24T07:41:15;51.58;;;6.22;;
25913;SDS011;13718;50.922;5.346;2022-12-24T07:43:40;45.72;;;5.95;;
25913;SDS011;13718;50.922;5.346;2022-12-24T07:46:06;57.33;;;5.85;;
25913;SDS011;13718;50.922;5.346;2022-12-24T07:48:32;53.83;;;6.88;;
25913;SDS011;13718;50.922;5.346;2022-12-24T07:50:58;53.03;;;6.72;;
25913;SDS011;13718;50.922;5.346;2022-12-24T07:53:24;52.45;;;6.32;;
25913;SDS011;13718;50.922;5.346;2022-12-24T07:55:51;53.00;;;7.07;;
25913;SDS011;13718;50.922;5.346;2022-12-24T07:58:17;51.83;;;6.32;;
25913;SDS011;13718;50.922;5.346;2022-12-24T08:00:42;56.25;;;6.72;;
25913;SDS011;13718;50.922;5.346;2022-12-24T08:03:15;57.30;;;8.15;;
25913;SDS011;13718;50.922;5.346;2022-12-24T08:05:43;55.63;;;7.00;;
25913;SDS011;13718;50.922;5.346;2022-12-24T08:08:08;52.17;;;6.45;;
25913;SDS011;13718;50.922;5.346;2022-12-24T08:10:37;53.53;;;6.43;;
25913;SDS011;13718;50.922;5.346;2022-12-24T08:13:03;58.50;;;8.25;;
25913;SDS011;13718;50.922;5.346;2022-12-24T08:15:28;61.15;;;7.80;;
25913;SDS011;13718;50.922;5.346;2022-12-24T08:17:54;56.65;;;5.88;;
25913;SDS011;13718;50.922;5.346;2022-12-24T08:20:20;63.67;;;6.68;;
25913;SDS011;13718;50.922;5.346;2022-12-24T08:22:45;60.25;;;6.85;;
25913;SDS011;13718;50.922;5.346;2022-12-24T08:25:11;47.53;;;7.38;;
25913;SDS011;13718;50.922;5.346;2022-12-24T08:27:37;56.13;;;6.35;;
25913;SDS011;13718;50.922;5.346;2022-12-24T08:30:06;60.35;;;6.07;;
25913;SDS011;13718;50.922;5.346;2022-12-24T08:32:32;67.38;;;7.00;;
25913;SDS011;13718;50.922;5.346;2022-12-24T08:34:58;45.25;;;5.90;;
25913;SDS011;13718;50.922;5.346;2022-12-24T08:37:23;57.55;;;6.20;;
25913;SDS011;13718;50.922;5.346;2022-12-24T08:39:49;50.20;;;7.03;;
25913;SDS011;13718;50.922;5.346;2022-12-24T08:42:15;48.30;;;5.88;;
25913;SDS011;13718;50.922;5.346;2022-12-24T08:44:40;51.78;;;6.57;;
25913;SDS011;13718;50.922;5.346;2022-12-24T08:47:06;54.38;;;5.88;;
25913;SDS011;13718;50.922;5.346;2022-12-24T08:49:32;50.72;;;6.10;;
25913;SDS011;13718;50.922;5.346;2022-12-24T08:51:58;54.20;;;6.55;;
25913;SDS011;13718;50.922;5.346;2022-12-24T08:54:26;58.45;;;5.97;;
25913;SDS011;13718;50.922;5.346;2022-12-24T08:56:51;53.03;;;6.78;;
25913;SDS011;13718;50.922;5.346;2022-12-24T08:59:17;50.70;;;5.60;;
25913;SDS011;13718;50.922;5.346;2022-12-24T09:01:43;54.92;;;6.50;;
25913;SDS011;13718;50.922;5.346;2022-12-24T09:04:08;47.10;;;6.68;;
25913;SDS011;13718;50.922;5.346;2022-12-24T09:06:35;53.72;;;6.88;;
25913;SDS011;13718;50.922;5.346;2022-12-24T09:09:01;62.17;;;6.88;;
25913;SDS011;13718;50.922;5.346;2022-12-24T09:11:30;58.72;;;7.82;;
25913;SDS011;13718;50.922;5.346;2022-12-24T09:13:57;43.83;;;5.70;;
25913;SDS011;13718;50.922;5.346;2022-12-24T09:16:23;35.95;;;5.35;;
25913;SDS011;13718;50.922;5.346;2022-12-24T09:18:49;48.35;;;6.13;;
25913;SDS011;13718;50.922;5.346;2022-12-24T09:21:14;57.25;;;5.80;;
25913;SDS011;13718;50.922;5.346;2022-12-24T09:23:42;46.83;;;5.65;;
25913;SDS011;13718;50.922;5.346;2022-12-24T09:26:13;48.85;;;6.22;;
25913;SDS011;13718;50.922;5.346;2022-12-24T09:28:40;44.00;;;5.63;;
25913;SDS011;13718;50.922;5.346;2022-12-24T09:31:06;52.15;;;5.60;;
25913;SDS011;13718;50.922;5.346;2022-12-24T09:33:33;50.90;;;5.78;;
25913;SDS011;13718;50.922;5.346;2022-12-24T09:36:00;44.38;;;6.53;;
25913;SDS011;13718;50.922;5.346;2022-12-24T09:38:26;47.08;;;5.63;;
25913;SDS011;13718;50.922;5.346;2022-12-24T09:40:53;45.85;;;6.32;;
25913;SDS011;13718;50.922;5.346;2022-12-24T09:43:20;45.00;;;5.80;;
25913;SDS011;13718;50.922;5.346;2022-12-24T09:48:29;56.05;;;6.60;;
25913;SDS011;13718;50.922;5.346;2022-12-24T09:50:59;44.85;;;5.45;;
25913;SDS011;13718;50.922;5.346;2022-12-24T09:56:36;48.75;;;5.97;;
25913;SDS011;13718;50.922;5.346;2022-12-24T09:59:03;56.45;;;6.07;;
25913;SDS011;13718;50.922;5.346;2022-12-24T10:01:34;52.85;;;6.53;;
25913;SDS011;13718;50.922;5.346;2022-12-24T10:04:10;42.50;;;6.10;;
25913;SDS011;13718;50.922;5.346;2022-12-24T10:12:18;44.88;;;5.90;;
25913;SDS011;13718;50.922;5.346;2022-12-24T10:14:49;36.60;;;4.65;;
25913;SDS011;13718;50.922;5.346;2022-12-24T10:23:38;35.47;;;5.50;;
25913;SDS011;13718;50.922;5.346;2022-12-24T10:29:11;41.45;;;5.65;;
25913;SDS011;13718;50.922;5.346;2022-12-24T10:31:46;45.90;;;4.97;;
25913;SDS011;13718;50.922;5.346;2022-12-24T10:34:22;48.25;;;5.53;;
25913;SDS011;13718;50.922;5.346;2022-12-24T10:36:49;41.42;;;5.30;;
25913;SDS011;13718;50.922;5.346;2022-12-24T10:39:22;35.22;;;5.55;;
25913;SDS011;13718;50.922;5.346;2022-12-24T10:41:50;36.08;;;5.38;;
25913;SDS011;13718;50.922;5.346;2022-12-24T10:44:19;45.17;;;5.28;;
25913;SDS011;13718;50.922;5.346;2022-12-24T10:46:48;38.13;;;5.38;;
25913;SDS011;13718;50.922;5.346;2022-12-24T10:49:15;40.92;;;4.65;;
25913;SDS011;13718;50.922;5.346;2022-12-24T10:54:22;47.22;;;6.70;;
25913;SDS011;13718;50.922;5.346;2022-12-24T10:56:51;39.33;;;5.45;;
25913;SDS011;13718;50.922;5.346;2022-12-24T10:59:25;36.17;;;4.60;;
25913;SDS011;13718;50.922;5.346;2022-12-24T11:01:54;41.33;;;4.70;;
25913;SDS011;13718;50.922;5.346;2022-12-24T11:04:24;37.85;;;5.55;;
25913;SDS011;13718;50.922;5.346;2022-12-24T11:06:56;44.75;;;5.95;;
25913;SDS011;13718;50.922;5.346;2022-12-24T11:11:59;41.42;;;5.82;;
25913;SDS011;13718;50.922;5.346;2022-12-24T11:14:30;36.72;;;4.93;;
25913;SDS011;13718;50.922;5.346;2022-12-24T11:17:01;37.40;;;5.35;;
25913;SDS011;13718;50.922;5.346;2022-12-24T11:19:33;40.85;;;4.82;;
25913;SDS011;13718;50.922;5.346;2022-12-24T11:22:06;33.08;;;4.85;;
25913;SDS011;13718;50.922;5.346;2022-12-24T11:24:56;39.40;;;4.90;;
25913;SDS011;13718;50.922;5.346;2022-12-24T11:32:38;43.72;;;5.70;;
25913;SDS011;13718;50.922;5.346;2022-12-24T11:35:05;34.90;;;5.13;;
25913;SDS011;13718;50.922;5.346;2022-12-24T11:37:39;37.50;;;4.78;;
25913;SDS011;13718;50.922;5.346;2022-12-24T11:40:07;38.25;;;5.35;;
25913;SDS011;13718;50.922;5.346;2022-12-24T11:42:48;30.25;;;4.55;;
25913;SDS011;13718;50.922;5.346;2022-12-24T11:45:24;32.47;;;5.15;;
25913;SDS011;13718;50.922;5.346;2022-12-24T11:47:52;36.55;;;4.60;;
25913;SDS011;13718;50.922;5.346;2022-12-24T11:50:19;27.33;;;4.20;;
25913;SDS011;13718;50.922;5.346;2022-12-24T11:53:16;37.17;;;4.43;;
25913;SDS011;13718;50.922;5.346;2022-12-24T11:58:22;28.92;;;4.10;;
25913;SDS011;13718;50.922;5.346;2022-12-24T12:01:17;41.30;;;5.15;;
25913;SDS011;13718;50.922;5.346;2022-12-24T12:03:48;38.60;;;4.55;;
25913;SDS011;13718;50.922;5.346;2022-12-24T12:06:36;28.63;;;4.10;;
25913;SDS011;13718;50.922;5.346;2022-12-24T12:09:22;43.97;;;5.47;;
25913;SDS011;13718;50.922;5.346;2022-12-24T12:11:54;36.03;;;4.55;;
25913;SDS011;13718;50.922;5.346;2022-12-24T12:14:37;33.80;;;4.35;;
25913;SDS011;13718;50.922;5.346;2022-12-24T12:19:41;32.47;;;4.55;;
25913;SDS011;13718;50.922;5.346;2022-12-24T12:22:25;32.03;;;4.85;;
25913;SDS011;13718;50.922;5.346;2022-12-24T12:24:59;32.38;;;4.00;;
25913;SDS011;13718;50.922;5.346;2022-12-24T12:27:36;32.88;;;3.67;;
25913;SDS011;13718;50.922;5.346;2022-12-24T12:30:17;35.00;;;4.57;;
25913;SDS011;13718;50.922;5.346;2022-12-24T12:35:43;43.22;;;5.03;;
25913;SDS011;13718;50.922;5.346;2022-12-24T12:38:11;35.90;;;5.40;;
25913;SDS011;13718;50.922;5.346;2022-12-24T12:40:54;32.05;;;4.95;;
25913;SDS011;13718;50.922;5.346;2022-12-24T12:48:54;31.58;;;4.38;;
25913;SDS011;13718;50.922;5.346;2022-12-24T12:56:49;39.70;;;4.47;;
25913;SDS011;13718;50.922;5.346;2022-12-24T12:59:29;39.05;;;5.03;;
25913;SDS011;13718;50.922;5.346;2022-12-24T13:02:16;41.88;;;5.07;;
25913;SDS011;13718;50.922;5.346;2022-12-24T13:15:56;38.10;;;5.22;;
25913;SDS011;13718;50.922;5.346;2022-12-24T13:21:18;43.38;;;5.30;;
25913;SDS011;13718;50.922;5.346;2022-12-24T13:23:46;29.27;;;4.22;;
25913;SDS011;13718;50.922;5.346;2022-12-24T13:26:13;33.20;;;4.53;;
25913;SDS011;13718;50.922;5.346;2022-12-24T13:28:39;43.25;;;4.97;;
25913;SDS011;13718;50.922;5.346;2022-12-24T13:36:11;33.75;;;5.28;;
25913;SDS011;13718;50.922;5.346;2022-12-24T13:49:17;37.88;;;4.78;;
25913;SDS011;13718;50.922;5.346;2022-12-24T13:51:46;49.58;;;6.82;;
25913;SDS011;13718;50.922;5.346;2022-12-24T13:54:14;33.75;;;5.00;;
25913;SDS011;13718;50.922;5.346;2022-12-24T13:56:45;27.52;;;5.03;;
25913;SDS011;13718;50.922;5.346;2022-12-24T13:59:33;30.73;;;4.70;;
25913;SDS011;13718;50.922;5.346;2022-12-24T14:02:00;31.33;;;5.28;;
25913;SDS011;13718;50.922;5.346;2022-12-24T14:04:27;34.55;;;4.95;;
25913;SDS011;13718;50.922;5.346;2022-12-24T14:06:57;32.50;;;4.93;;
25913;SDS011;13718;50.922;5.346;2022-12-24T14:09:25;31.98;;;5.35;;
25913;SDS011;13718;50.922;5.346;2022-12-24T14:19:56;35.00;;;5.25;;
25913;SDS011;13718;50.922;5.346;2022-12-24T14:22:33;37.10;;;5.43;;
25913;SDS011;13718;50.922;5.346;2022-12-24T14:30:03;28.55;;;3.80;;
25913;SDS011;13718;50.922;5.346;2022-12-24T14:32:37;32.88;;;5.35;;
25913;SDS011;13718;50.922;5.346;2022-12-24T14:35:14;41.45;;;5.07;;
25913;SDS011;13718;50.922;5.346;2022-12-24T14:37:46;37.67;;;4.95;;
25913;SDS011;13718;50.922;5.346;2022-12-24T14:40:33;36.25;;;4.63;;
25913;SDS011;13718;50.922;5.346;2022-12-24T14:46:04;35.95;;;4.65;;
25913;SDS011;13718;50.922;5.346;2022-12-24T14:48:47;37.20;;;4.90;;
25913;SDS011;13718;50.922;5.346;2022-12-24T15:02:23;38.10;;;5.45;;
25913;SDS011;13718;50.922;5.346;2022-12-24T15:05:02;37.65;;;5.20;;
25913;SDS011;13718;50.922;5.346;2022-12-24T15:07:31;34.60;;;4.82;;
25913;SDS011;13718;50.922;5.346;2022-12-24T15:09:58;38.10;;;5.35;;
25913;SDS011;13718;50.922;5.346;2022-12-24T15:12:25;41.92;;;5.25;;
25913;SDS011;13718;50.922;5.346;2022-12-24T15:14:51;31.35;;;5.50;;
25913;SDS011;13718;50.922;5.346;2022-12-24T15:17:16;35.35;;;4.90;;
25913;SDS011;13718;50.922;5.346;2022-12-24T15:19:42;37.97;;;6.53;;
25913;SDS011;13718;50.922;5.346;2022-12-24T15:22:18;46.22;;;6.95;;
25913;SDS011;13718;50.922;5.346;2022-12-24T15:24:52;35.03;;;5.68;;
25913;SDS011;13718;50.922;5.346;2022-12-24T15:27:19;41.88;;;5.85;;
25913;SDS011;13718;50.922;5.346;2022-12-24T15:29:48;28.08;;;5.80;;
25913;SDS011;13718;50.922;5.346;2022-12-24T15:32:17;39.45;;;6.40;;
25913;SDS011;13718;50.922;5.346;2022-12-24T15:34:54;38.25;;;6.95;;
25913;SDS011;13718;50.922;5.346;2022-12-24T15:42:30;48.30;;;7.57;;
25913;SDS011;13718;50.922;5.346;2022-12-24T15:45:01;39.05;;;6.80;;
25913;SDS011;13718;50.922;5.346;2022-12-24T15:47:34;45.00;;;6.50;;
25913;SDS011;13718;50.922;5.346;2022-12-24T15:50:27;48.03;;;8.18;;
25913;SDS011;13718;50.922;5.346;2022-12-24T15:52:53;53.65;;;8.07;;
25913;SDS011;13718;50.922;5.346;2022-12-24T15:55:33;42.25;;;7.63;;
25913;SDS011;13718;50.922;5.346;2022-12-24T15:58:21;50.17;;;8.43;;
25913;SDS011;13718;50.922;5.346;2022-12-24T16:01:04;36.55;;;6.90;;
25913;SDS011;13718;50.922;5.346;2022-12-24T16:03:34;43.80;;;8.50;;
25913;SDS011;13718;50.922;5.346;2022-12-24T16:06:05;46.72;;;10.57;;
25913;SDS011;13718;50.922;5.346;2022-12-24T16:08:33;57.10;;;9.48;;
25913;SDS011;13718;50.922;5.346;2022-12-24T16:16:14;52.22;;;9.13;;
25913;SDS011;13718;50.922;5.346;2022-12-24T16:18:52;50.20;;;8.30;;
25913;SDS011;13718;50.922;5.346;2022-12-24T16:24:04;44.63;;;8.27;;
25913;SDS011;13718;50.922;5.346;2022-12-24T16:26:42;46.20;;;8.38;;
25913;SDS011;13718;50.922;5.346;2022-12-24T16:29:09;51.08;;;8.20;;
25913;SDS011;13718;50.922;5.346;2022-12-24T16:31:38;49.15;;;8.23;;
25913;SDS011;13718;50.922;5.346;2022-12-24T16:34:10;52.63;;;8.32;;
25913;SDS011;13718;50.922;5.346;2022-12-24T16:36:41;53.20;;;7.95;;
25913;SDS011;13718;50.922;5.346;2022-12-24T16:39:19;50.17;;;8.50;;
25913;SDS011;13718;50.922;5.346;2022-12-24T16:41:50;48.67;;;8.88;;
25913;SDS011;13718;50.922;5.346;2022-12-24T16:44:35;52.22;;;8.10;;
25913;SDS011;13718;50.922;5.346;2022-12-24T16:47:02;50.42;;;7.70;;
25913;SDS011;13718;50.922;5.346;2022-12-24T16:49:29;51.33;;;8.70;;
25913;SDS011;13718;50.922;5.346;2022-12-24T16:51:55;53.92;;;9.00;;
25913;SDS011;13718;50.922;5.346;2022-12-24T16:54:20;46.08;;;7.72;;
25913;SDS011;13718;50.922;5.346;2022-12-24T16:56:46;53.05;;;8.13;;
25913;SDS011;13718;50.922;5.346;2022-12-24T16:59:14;40.47;;;7.35;;
25913;SDS011;13718;50.922;5.346;2022-12-24T17:01:47;48.35;;;7.63;;
25913;SDS011;13718;50.922;5.346;2022-12-24T17:04:14;53.05;;;9.18;;
25913;SDS011;13718;50.922;5.346;2022-12-24T17:06:40;50.33;;;8.93;;